Dingle, Idaho
Current Conditions -  °F | °C
As of 9:15 AM on Sunday 23 Nov 2014 (Local Time) from KAFO Reporting Station
Broken Clouds Broken Clouds  
Wind Chill: 15°   Ceiling: 4500
Heat Index: 25°   Visibility: 10mi
Dew Point: 18°   Wind: 9mph
Humidity: 74%   Direction: 360°N
Pressure: 30.06"   Gusts: NA
Location:  42.22°N, 111.27°W
Report Text: KAFO 231615Z AUTO 36008KT 10SM SCT032 BKN045 BKN060 M04/M08 A3006 RMK AO2
Loading
Personal Weather Stations






























Interactive Weather Map New forecast layout! Learn more

10-Day Weather Forecast

Advertisements
Track Severe Weather on mobile